createdAt,value
2019-05-26T00:01:27.667Z,58.71
2019-05-26T00:06:35.233Z,63.64
2019-05-26T00:11:42.977Z,60.06
2019-05-26T00:16:50.568Z,57.80
2019-05-26T00:21:58.189Z,60.27
2019-05-26T00:27:05.785Z,65.38
2019-05-26T00:32:14.456Z,67.42
2019-05-26T00:37:22.064Z,67.47
2019-05-26T00:42:29.716Z,71.65
2019-05-26T00:47:37.307Z,65.39
2019-05-26T00:52:45.049Z,65.65
2019-05-26T00:57:52.708Z,67.04
2019-05-26T01:03:00.347Z,67.87
2019-05-26T01:08:07.939Z,71.13
2019-05-26T01:13:15.585Z,73.54
2019-05-26T01:18:23.172Z,71.88
2019-05-26T01:23:31.004Z,80.83
2019-05-26T01:28:38.635Z,82.73
2019-05-26T01:33:46.438Z,74.63
2019-05-26T01:38:54.027Z,77.50
2019-05-26T01:44:01.695Z,79.03
2019-05-26T01:49:09.309Z,81.76
2019-05-26T01:54:17.317Z,83.52
2019-05-26T01:59:24.933Z,80.74
2019-05-26T02:04:32.732Z,79.03
2019-05-26T02:09:40.332Z,83.79
2019-05-26T02:14:47.957Z,85.68
2019-05-26T02:19:55.574Z,88.26
2019-05-26T02:25:03.309Z,95.14
2019-05-26T02:30:11.044Z,86.47
2019-05-26T02:35:18.573Z,91.54
2019-05-26T02:40:26.176Z,97.22
2019-05-26T02:45:33.946Z,92.93
2019-05-26T02:50:41.537Z,97.97
2019-05-26T02:55:49.250Z,92.81
2019-05-26T03:00:56.865Z,110.38
2019-05-26T03:06:04.613Z,101.38
2019-05-26T03:11:12.246Z,101.61
2019-05-26T03:16:19.865Z,98.46
2019-05-26T03:21:27.477Z,95.33
2019-05-26T03:26:35.157Z,92.47
2019-05-26T03:31:42.754Z,91.55
2019-05-26T03:36:50.481Z,89.25
2019-05-26T03:41:58.067Z,84.35
2019-05-26T03:47:05.830Z,79.59
2019-05-26T03:52:13.432Z,81.54
2019-05-26T03:57:21.056Z,80.97
2019-05-26T04:02:28.637Z,78.00
2019-05-26T04:07:36.249Z,73.69
2019-05-26T04:12:43.847Z,75.24
2019-05-26T04:17:51.633Z,76.34
2019-05-26T04:22:59.229Z,78.01
2019-05-26T04:28:06.890Z,71.22
2019-05-26T04:33:14.514Z,73.74
2019-05-26T04:38:22.142Z,73.51
2019-05-26T04:43:29.729Z,70.74
2019-05-26T04:48:37.425Z,70.28
2019-05-26T04:53:45.021Z,70.74
2019-05-26T04:58:52.641Z,71.33
2019-05-26T05:04:00.263Z,66.38
2019-05-26T05:09:07.862Z,64.61
2019-05-26T05:14:15.481Z,58.76
2019-05-26T05:19:23.084Z,58.72
2019-05-26T05:24:30.705Z,57.06
2019-05-26T05:29:38.446Z,57.20
2019-05-26T05:34:46.033Z,52.98
2019-05-26T05:39:53.689Z,51.00
2019-05-26T05:45:01.278Z,49.11
2019-05-26T05:50:08.952Z,47.41
2019-05-26T05:55:16.573Z,47.21
2019-05-26T06:00:24.217Z,44.36
2019-05-26T06:05:31.804Z,42.08
2019-05-26T06:10:39.417Z,41.31
2019-05-26T06:15:47.009Z,39.77
2019-05-26T06:20:54.685Z,40.35
2019-05-26T06:26:02.297Z,35.41
2019-05-26T06:31:09.909Z,34.11
2019-05-26T06:36:17.513Z,34.56
2019-05-26T06:41:33.491Z,31.41
2019-05-26T06:46:32.313Z,29.79
2019-05-26T06:51:39.948Z,28.09
2019-05-26T06:56:47.540Z,29.52
2019-05-26T07:01:55.168Z,29.01
2019-05-26T07:07:02.774Z,29.50
2019-05-26T07:12:10.425Z,30.17
2019-05-26T07:17:20.564Z,27.21
2019-05-26T07:22:25.301Z,28.05
2019-05-26T07:27:35.921Z,28.23
2019-05-26T07:32:33.573Z,27.62
2019-05-26T07:37:41.173Z,29.68
2019-05-26T07:42:48.890Z,25.52
2019-05-26T07:47:56.495Z,25.13
2019-05-26T07:53:04.109Z,23.93
2019-05-26T07:58:11.725Z,24.97
2019-05-26T08:03:19.368Z,27.26
2019-05-26T08:08:27.029Z,21.63
2019-05-26T08:13:34.775Z,23.36
2019-05-26T08:18:42.382Z,22.54
2019-05-26T08:23:50.018Z,24.39
2019-05-26T08:28:57.609Z,23.23
2019-05-26T08:34:05.301Z,23.09
2019-05-26T08:39:12.920Z,20.17
2019-05-26T08:44:20.578Z,20.74
2019-05-26T08:49:28.172Z,20.93
2019-05-26T08:54:35.805Z,20.71
2019-05-26T08:59:43.395Z,20.66
2019-05-26T09:04:51.083Z,19.51
2019-05-26T09:09:58.657Z,19.38
2019-05-26T09:15:06.269Z,18.06
2019-05-26T09:20:13.903Z,18.62
2019-05-26T09:25:21.524Z,16.22
2019-05-26T09:30:29.133Z,16.33
2019-05-26T09:35:36.743Z,17.68
2019-05-26T09:40:44.330Z,17.79
2019-05-26T09:45:51.937Z,20.63
2019-05-26T09:50:59.550Z,18.58
2019-05-26T09:56:07.225Z,18.15
2019-05-26T10:01:15.169Z,20.89
2019-05-26T10:06:22.797Z,19.02
2019-05-26T10:11:30.405Z,21.11
2019-05-26T10:16:38.022Z,19.39
2019-05-26T10:21:45.629Z,19.17
2019-05-26T10:26:53.251Z,20.80
2019-05-26T10:32:00.866Z,18.64
2019-05-26T10:37:08.484Z,18.97
2019-05-26T10:42:16.085Z,20.69
2019-05-26T10:47:23.760Z,20.15
2019-05-26T10:52:31.361Z,18.33
2019-05-26T10:57:38.979Z,17.32
2019-05-26T11:02:46.580Z,19.44
2019-05-26T11:07:54.249Z,18.31
2019-05-26T11:13:01.855Z,16.72
2019-05-26T11:18:09.482Z,16.84
2019-05-26T11:23:17.076Z,16.15
2019-05-26T11:28:24.807Z,17.99
2019-05-26T11:33:32.394Z,20.18
2019-05-26T11:38:40.040Z,17.84
2019-05-26T11:43:47.654Z,17.28
2019-05-26T11:48:55.338Z,17.47
2019-05-26T11:54:02.943Z,17.83
2019-05-26T11:59:10.568Z,19.05
2019-05-26T12:04:18.161Z,17.43
2019-05-26T12:09:25.826Z,17.80
2019-05-26T12:14:35.356Z,16.27
2019-05-26T12:19:40.559Z,17.73
2019-05-26T12:24:48.161Z,15.95
2019-05-26T12:29:55.823Z,17.18
2019-05-26T12:35:03.431Z,17.13
2019-05-26T12:40:11.061Z,18.69
2019-05-26T12:45:18.661Z,16.50
2019-05-26T12:50:26.334Z,17.17
2019-05-26T12:55:33.927Z,19.01
2019-05-26T12:59:00.994Z,18.54
2019-05-26T13:04:08.601Z,16.74
2019-05-26T13:09:16.205Z,17.19
2019-05-26T13:14:23.873Z,18.18
2019-05-26T13:19:31.497Z,15.54
2019-05-26T13:24:39.117Z,14.83
2019-05-26T13:29:46.754Z,17.97
2019-05-26T13:34:54.361Z,14.09
2019-05-26T13:40:01.965Z,16.01
2019-05-26T13:45:21.635Z,13.35
2019-05-26T13:50:17.106Z,11.44
2019-05-26T13:55:24.777Z,10.21
2019-05-26T14:00:32.382Z,12.29
2019-05-26T14:05:40.047Z,10.90
2019-05-26T14:10:47.674Z,12.73
2019-05-26T14:15:55.437Z,12.78
2019-05-26T14:21:03.053Z,9.48
2019-05-26T14:26:10.942Z,8.47
2019-05-26T14:31:18.533Z,7.91
2019-05-26T14:36:26.209Z,8.49
2019-05-26T14:41:33.802Z,7.81
2019-05-26T14:46:41.471Z,7.29
2019-05-26T14:51:49.102Z,8.34
2019-05-26T14:56:56.830Z,7.10
2019-05-26T15:02:04.441Z,7.01
2019-05-26T15:07:12.074Z,8.58
2019-05-26T15:12:19.713Z,6.86
2019-05-26T15:17:27.336Z,7.60
2019-05-26T15:22:34.968Z,5.03
2019-05-26T15:27:45.918Z,4.64
2019-05-26T15:32:49.841Z,6.73
2019-05-26T15:37:57.533Z,7.01
2019-05-26T15:43:05.162Z,6.54
2019-05-26T15:48:12.794Z,5.57
2019-05-26T15:53:20.411Z,6.83
2019-05-26T15:58:28.042Z,7.30
2019-05-26T16:03:35.668Z,7.76
2019-05-26T16:08:43.338Z,9.79
2019-05-26T16:13:50.960Z,7.95
2019-05-26T16:18:58.654Z,7.48
2019-05-26T16:24:06.267Z,7.71
2019-05-26T16:29:13.908Z,7.27
2019-05-26T16:34:21.533Z,7.18
2019-05-26T16:39:37.080Z,6.52
2019-05-26T16:44:36.577Z,8.65
2019-05-26T16:49:44.226Z,7.33
2019-05-26T16:54:51.859Z,6.48
2019-05-26T16:59:59.479Z,6.82
2019-05-26T17:05:07.073Z,6.95
2019-05-26T17:10:14.741Z,7.00
2019-05-26T17:15:22.368Z,6.51
2019-05-26T17:20:30.086Z,7.44
2019-05-26T17:25:40.666Z,6.99
2019-05-26T17:30:38.343Z,6.48
2019-05-26T17:35:45.937Z,8.01
2019-05-26T17:40:53.801Z,9.75
2019-05-26T17:46:01.392Z,7.28
2019-05-26T17:51:09.179Z,6.80
2019-05-26T17:56:16.799Z,8.86
2019-05-26T18:01:24.474Z,7.76
2019-05-26T18:06:32.086Z,6.71
2019-05-26T18:11:39.709Z,6.80
2019-05-26T18:16:47.313Z,6.85
2019-05-26T18:21:55.015Z,6.56
2019-05-26T18:27:02.612Z,6.61
2019-05-26T18:32:10.327Z,6.86
2019-05-26T18:37:17.911Z,6.35
2019-05-26T18:42:25.526Z,6.78
2019-05-26T18:47:33.147Z,6.69
2019-05-26T18:52:40.818Z,6.58
2019-05-26T18:57:48.405Z,8.58
2019-05-26T19:02:56.095Z,5.60
2019-05-26T19:08:03.726Z,6.14
2019-05-26T19:13:11.385Z,6.53
2019-05-26T19:18:20.279Z,8.72
2019-05-26T19:23:26.219Z,6.24
2019-05-26T19:28:33.769Z,6.06
2019-05-26T19:33:41.402Z,6.79
2019-05-26T19:38:49.026Z,6.00
2019-05-26T19:43:56.643Z,5.98
2019-05-26T19:49:04.221Z,6.96
2019-05-26T19:54:11.859Z,4.36
2019-05-26T19:59:19.474Z,4.48
2019-05-26T20:04:27.481Z,4.35
2019-05-26T20:09:35.146Z,3.98
2019-05-26T20:14:42.799Z,4.14
2019-05-26T20:19:50.428Z,4.78
2019-05-26T20:24:58.832Z,5.73
2019-05-26T20:30:06.465Z,5.92
2019-05-26T20:35:14.102Z,7.29
2019-05-26T20:40:21.701Z,6.91
2019-05-26T20:45:29.398Z,7.85
2019-05-26T20:50:36.929Z,6.36
2019-05-26T20:55:44.553Z,6.28
2019-05-26T21:00:53.419Z,5.07
2019-05-26T21:05:59.326Z,6.93
2019-05-26T21:11:06.915Z,3.82
2019-05-26T21:16:14.692Z,4.11
2019-05-26T21:21:22.314Z,3.98
2019-05-26T21:26:30.000Z,5.40
2019-05-26T21:31:37.606Z,4.35
2019-05-26T21:36:45.528Z,4.53
2019-05-26T21:41:53.137Z,5.42
2019-05-26T21:47:00.811Z,5.28
2019-05-26T21:52:08.402Z,6.26
2019-05-26T21:57:17.338Z,5.01
2019-05-26T22:02:24.933Z,4.14
2019-05-26T22:07:32.615Z,4.06
2019-05-26T22:12:40.201Z,6.86
2019-05-26T22:17:47.813Z,6.15
2019-05-26T22:22:55.421Z,6.03
2019-05-26T22:28:03.153Z,5.91
2019-05-26T22:33:10.753Z,7.95
2019-05-26T22:38:18.418Z,9.72
2019-05-26T22:43:26.022Z,10.56
2019-05-26T22:48:33.696Z,10.76
2019-05-26T22:53:41.289Z,10.30
2019-05-26T22:58:48.905Z,9.97
2019-05-26T23:03:56.487Z,7.70
2019-05-26T23:09:04.362Z,7.24
2019-05-26T23:14:11.959Z,7.93
2019-05-26T23:19:20.263Z,8.26
2019-05-26T23:24:26.813Z,7.26
2019-05-26T23:29:34.705Z,7.35
2019-05-26T23:34:42.301Z,9.23
2019-05-26T23:39:49.941Z,7.14
2019-05-26T23:44:57.533Z,9.91
2019-05-26T23:50:05.221Z,9.27
2019-05-26T23:55:12.829Z,7.18
